sensor_id;sensor_type;location;lat;lon;timestamp;pressure;altitude;pressure_sealevel;temperature;humidity
21879;BME280;27908;42.708;23.278;2023-03-04T00:00:46;63195.72;;;5.86;100.00
21879;BME280;27908;42.708;23.278;2023-03-04T00:03:12;63177.88;;;5.76;100.00
21879;BME280;27908;42.708;23.278;2023-03-04T00:05:39;63189.66;;;5.88;100.00
21879;BME280;27908;42.708;23.278;2023-03-04T00:08:05;63141.06;;;5.82;100.00
21879;BME280;27908;42.708;23.278;2023-03-04T00:10:30;63192.47;;;5.73;100.00
21879;BME280;27908;42.708;23.278;2023-03-04T00:12:55;63199.50;;;5.70;100.00
21879;BME280;27908;42.708;23.278;2023-03-04T00:15:21;63185.03;;;5.83;100.00
21879;BME280;27908;42.708;23.278;2023-03-04T00:17:46;63161.22;;;5.80;100.00
21879;BME280;27908;42.708;23.278;2023-03-04T00:20:12;63204.28;;;5.85;100.00
21879;BME280;27908;42.708;23.278;2023-03-04T00:22:38;63175.78;;;5.72;100.00
21879;BME280;27908;42.708;23.278;2023-03-04T00:25:03;63175.31;;;5.74;100.00
21879;BME280;27908;42.708;23.278;2023-03-04T00:27:29;63196.88;;;5.63;100.00
21879;BME280;27908;42.708;23.278;2023-03-04T00:29:55;63196.59;;;5.80;100.00
21879;BME280;27908;42.708;23.278;2023-03-04T00:32:20;63182.38;;;5.73;100.00
21879;BME280;27908;42.708;23.278;2023-03-04T00:34:46;63207.78;;;5.83;100.00
21879;BME280;27908;42.708;23.278;2023-03-04T00:37:12;63193.38;;;5.67;100.00
21879;BME280;27908;42.708;23.278;2023-03-04T00:39:37;63187.50;;;5.78;100.00
21879;BME280;27908;42.708;23.278;2023-03-04T00:42:03;63201.63;;;5.77;100.00
21879;BME280;27908;42.708;23.278;2023-03-04T00:44:28;63174.09;;;5.61;100.00
21879;BME280;27908;42.708;23.278;2023-03-04T00:46:53;63182.25;;;5.66;100.00
21879;BME280;27908;42.708;23.278;2023-03-04T00:49:19;63161.09;;;5.70;100.00
21879;BME280;27908;42.708;23.278;2023-03-04T00:51:44;63181.91;;;5.78;100.00
21879;BME280;27908;42.708;23.278;2023-03-04T00:54:10;63197.53;;;5.73;100.00
21879;BME280;27908;42.708;23.278;2023-03-04T00:56:35;63228.53;;;5.84;100.00
21879;BME280;27908;42.708;23.278;2023-03-04T00:59:01;63191.50;;;5.75;100.00
21879;BME280;27908;42.708;23.278;2023-03-04T01:01:26;63163.09;;;5.69;100.00
21879;BME280;27908;42.708;23.278;2023-03-04T01:03:51;63207.72;;;5.78;100.00
21879;BME280;27908;42.708;23.278;2023-03-04T01:06:17;63184.78;;;5.66;100.00
21879;BME280;27908;42.708;23.278;2023-03-04T01:08:42;63175.22;;;5.69;100.00
21879;BME280;27908;42.708;23.278;2023-03-04T01:11:08;63178.50;;;5.84;100.00
21879;BME280;27908;42.708;23.278;2023-03-04T01:13:34;63197.16;;;5.83;100.00
21879;BME280;27908;42.708;23.278;2023-03-04T01:15:59;63182.97;;;5.79;100.00
21879;BME280;27908;42.708;23.278;2023-03-04T01:18:24;63185.50;;;5.81;100.00
21879;BME280;27908;42.708;23.278;2023-03-04T01:20:50;63172.94;;;5.86;100.00
21879;BME280;27908;42.708;23.278;2023-03-04T01:23:15;63162.06;;;5.68;100.00
21879;BME280;27908;42.708;23.278;2023-03-04T01:25:41;63194.22;;;5.90;100.00
21879;BME280;27908;42.708;23.278;2023-03-04T01:28:06;63225.66;;;5.96;100.00
21879;BME280;27908;42.708;23.278;2023-03-04T01:30:32;63222.50;;;5.88;100.00
21879;BME280;27908;42.708;23.278;2023-03-04T01:32:57;63334.41;;;5.98;100.00
21879;BME280;27908;42.708;23.278;2023-03-04T01:35:23;63215.97;;;5.89;100.00
21879;BME280;27908;42.708;23.278;2023-03-04T01:37:48;63172.84;;;5.79;100.00
21879;BME280;27908;42.708;23.278;2023-03-04T01:40:14;63203.78;;;5.84;100.00
21879;BME280;27908;42.708;23.278;2023-03-04T01:42:40;63169.28;;;5.78;100.00
21879;BME280;27908;42.708;23.278;2023-03-04T01:45:06;63188.00;;;5.79;100.00
21879;BME280;27908;42.708;23.278;2023-03-04T01:47:34;63209.44;;;5.92;100.00
21879;BME280;27908;42.708;23.278;2023-03-04T01:50:02;63229.19;;;5.94;100.00
21879;BME280;27908;42.708;23.278;2023-03-04T01:52:28;63182.50;;;5.83;100.00
21879;BME280;27908;42.708;23.278;2023-03-04T01:54:53;63222.88;;;5.78;100.00
21879;BME280;27908;42.708;23.278;2023-03-04T01:57:23;63187.75;;;5.62;100.00
21879;BME280;27908;42.708;23.278;2023-03-04T02:02:52;63153.72;;;5.51;100.00
21879;BME280;27908;42.708;23.278;2023-03-04T02:05:18;63142.47;;;5.40;100.00
21879;BME280;27908;42.708;23.278;2023-03-04T02:07:45;63163.41;;;5.55;100.00
21879;BME280;27908;42.708;23.278;2023-03-04T02:10:11;63136.22;;;5.63;100.00
21879;BME280;27908;42.708;23.278;2023-03-04T02:12:37;63154.38;;;5.61;100.00
21879;BME280;27908;42.708;23.278;2023-03-04T02:15:03;63178.69;;;5.65;100.00
21879;BME280;27908;42.708;23.278;2023-03-04T02:17:31;63174.09;;;5.61;100.00
21879;BME280;27908;42.708;23.278;2023-03-04T02:22:37;63196.34;;;5.63;100.00
21879;BME280;27908;42.708;23.278;2023-03-04T02:25:11;63225.13;;;5.61;100.00
21879;BME280;27908;42.708;23.278;2023-03-04T02:27:40;63134.97;;;5.47;100.00
21879;BME280;27908;42.708;23.278;2023-03-04T02:30:05;63159.69;;;5.42;100.00
21879;BME280;27908;42.708;23.278;2023-03-04T02:32:31;63172.38;;;5.47;100.00
21879;BME280;27908;42.708;23.278;2023-03-04T02:34:57;63170.00;;;5.57;100.00
21879;BME280;27908;42.708;23.278;2023-03-04T02:37:22;63139.63;;;5.54;100.00
21879;BME280;27908;42.708;23.278;2023-03-04T02:39:48;63177.75;;;5.35;100.00
21879;BME280;27908;42.708;23.278;2023-03-04T02:42:14;63147.44;;;5.35;100.00
21879;BME280;27908;42.708;23.278;2023-03-04T02:44:42;63143.31;;;5.29;100.00
21879;BME280;27908;42.708;23.278;2023-03-04T02:47:12;63066.81;;;5.11;100.00
21879;BME280;27908;42.708;23.278;2023-03-04T02:49:39;63100.75;;;5.19;100.00
21879;BME280;27908;42.708;23.278;2023-03-04T02:52:09;63136.53;;;5.15;100.00
21879;BME280;27908;42.708;23.278;2023-03-04T02:54:36;63084.34;;;5.01;100.00
21879;BME280;27908;42.708;23.278;2023-03-04T02:57:05;63102.44;;;4.96;100.00
21879;BME280;27908;42.708;23.278;2023-03-04T02:59:30;63124.13;;;4.93;100.00
21879;BME280;27908;42.708;23.278;2023-03-04T03:01:56;63099.44;;;4.98;100.00
21879;BME280;27908;42.708;23.278;2023-03-04T03:04:23;63105.44;;;4.94;100.00
21879;BME280;27908;42.708;23.278;2023-03-04T03:06:48;63079.88;;;4.72;100.00
21879;BME280;27908;42.708;23.278;2023-03-04T03:09:14;63075.41;;;4.75;100.00
21879;BME280;27908;42.708;23.278;2023-03-04T03:11:39;63100.81;;;4.88;100.00
21879;BME280;27908;42.708;23.278;2023-03-04T03:14:05;63084.16;;;4.89;100.00
21879;BME280;27908;42.708;23.278;2023-03-04T03:16:30;63055.88;;;4.88;100.00
21879;BME280;27908;42.708;23.278;2023-03-04T03:18:56;63087.72;;;4.90;100.00
21879;BME280;27908;42.708;23.278;2023-03-04T03:21:22;63066.53;;;4.91;100.00
21879;BME280;27908;42.708;23.278;2023-03-04T03:23:48;63058.44;;;4.91;100.00
21879;BME280;27908;42.708;23.278;2023-03-04T03:26:14;63114.03;;;4.93;100.00
21879;BME280;27908;42.708;23.278;2023-03-04T03:28:39;63081.53;;;4.81;100.00
21879;BME280;27908;42.708;23.278;2023-03-04T03:31:05;63073.41;;;4.78;100.00
21879;BME280;27908;42.708;23.278;2023-03-04T03:33:30;63052.72;;;4.78;100.00
21879;BME280;27908;42.708;23.278;2023-03-04T03:35:56;63087.91;;;4.68;100.00
21879;BME280;27908;42.708;23.278;2023-03-04T03:38:21;63044.97;;;4.31;100.00
21879;BME280;27908;42.708;23.278;2023-03-04T03:40:46;63044.25;;;4.50;100.00
21879;BME280;27908;42.708;23.278;2023-03-04T03:43:12;63055.84;;;4.49;100.00
21879;BME280;27908;42.708;23.278;2023-03-04T03:45:37;63028.53;;;4.45;100.00
21879;BME280;27908;42.708;23.278;2023-03-04T03:48:03;63038.97;;;4.35;100.00
21879;BME280;27908;42.708;23.278;2023-03-04T03:50:29;63014.19;;;4.28;100.00
21879;BME280;27908;42.708;23.278;2023-03-04T03:52:54;63000.69;;;4.03;100.00
21879;BME280;27908;42.708;23.278;2023-03-04T03:55:20;62996.78;;;4.12;100.00
21879;BME280;27908;42.708;23.278;2023-03-04T03:57:45;63003.28;;;4.08;100.00
21879;BME280;27908;42.708;23.278;2023-03-04T04:00:12;63011.25;;;4.01;100.00
21879;BME280;27908;42.708;23.278;2023-03-04T04:02:38;62975.81;;;3.91;100.00
21879;BME280;27908;42.708;23.278;2023-03-04T04:05:04;62951.53;;;3.85;100.00
21879;BME280;27908;42.708;23.278;2023-03-04T04:07:30;62929.72;;;3.74;100.00
21879;BME280;27908;42.708;23.278;2023-03-04T04:09:55;62965.53;;;3.79;100.00
21879;BME280;27908;42.708;23.278;2023-03-04T04:12:22;62976.06;;;3.75;100.00
21879;BME280;27908;42.708;23.278;2023-03-04T04:14:47;62918.16;;;3.41;100.00
21879;BME280;27908;42.708;23.278;2023-03-04T04:17:12;62919.47;;;3.61;100.00
21879;BME280;27908;42.708;23.278;2023-03-04T04:19:39;62896.38;;;3.34;100.00
21879;BME280;27908;42.708;23.278;2023-03-04T04:22:06;62910.31;;;3.23;100.00
21879;BME280;27908;42.708;23.278;2023-03-04T04:24:32;62865.25;;;3.04;100.00
21879;BME280;27908;42.708;23.278;2023-03-04T04:26:57;62945.00;;;3.20;100.00
21879;BME280;27908;42.708;23.278;2023-03-04T04:29:23;62912.25;;;3.18;100.00
21879;BME280;27908;42.708;23.278;2023-03-04T04:31:48;62896.13;;;3.17;100.00
21879;BME280;27908;42.708;23.278;2023-03-04T04:34:14;62910.72;;;3.17;100.00
21879;BME280;27908;42.708;23.278;2023-03-04T04:36:39;62865.84;;;3.12;100.00
21879;BME280;27908;42.708;23.278;2023-03-04T04:39:05;62879.25;;;2.98;100.00
21879;BME280;27908;42.708;23.278;2023-03-04T04:41:36;62853.91;;;2.86;100.00
21879;BME280;27908;42.708;23.278;2023-03-04T04:44:02;62882.13;;;2.91;100.00
21879;BME280;27908;42.708;23.278;2023-03-04T04:46:27;62841.91;;;2.91;100.00
21879;BME280;27908;42.708;23.278;2023-03-04T04:48:54;62904.88;;;2.96;100.00
21879;BME280;27908;42.708;23.278;2023-03-04T04:51:20;62899.31;;;2.96;100.00
21879;BME280;27908;42.708;23.278;2023-03-04T04:53:46;62908.75;;;2.88;100.00
21879;BME280;27908;42.708;23.278;2023-03-04T04:56:18;62875.63;;;2.92;100.00
21879;BME280;27908;42.708;23.278;2023-03-04T04:58:44;62851.38;;;2.86;100.00
21879;BME280;27908;42.708;23.278;2023-03-04T05:01:10;62881.09;;;2.88;100.00
21879;BME280;27908;42.708;23.278;2023-03-04T05:03:36;62859.78;;;2.77;100.00
21879;BME280;27908;42.708;23.278;2023-03-04T05:06:04;62832.06;;;2.72;100.00
21879;BME280;27908;42.708;23.278;2023-03-04T05:08:31;62826.44;;;2.67;100.00
21879;BME280;27908;42.708;23.278;2023-03-04T05:10:56;62871.66;;;2.64;100.00
21879;BME280;27908;42.708;23.278;2023-03-04T05:13:22;62887.94;;;2.78;100.00
21879;BME280;27908;42.708;23.278;2023-03-04T05:15:51;62885.44;;;2.78;100.00
21879;BME280;27908;42.708;23.278;2023-03-04T05:18:18;62854.13;;;2.69;100.00
21879;BME280;27908;42.708;23.278;2023-03-04T05:20:44;62896.72;;;2.91;100.00
21879;BME280;27908;42.708;23.278;2023-03-04T05:23:09;62874.69;;;2.96;100.00
21879;BME280;27908;42.708;23.278;2023-03-04T05:25:35;62881.81;;;3.03;100.00
21879;BME280;27908;42.708;23.278;2023-03-04T05:28:00;62867.16;;;2.99;100.00
21879;BME280;27908;42.708;23.278;2023-03-04T05:30:26;62879.53;;;3.18;100.00
21879;BME280;27908;42.708;23.278;2023-03-04T05:32:52;62905.28;;;3.23;100.00
21879;BME280;27908;42.708;23.278;2023-03-04T05:35:17;62923.84;;;3.19;100.00
21879;BME280;27908;42.708;23.278;2023-03-04T05:37:43;62877.53;;;3.18;100.00
21879;BME280;27908;42.708;23.278;2023-03-04T05:40:08;62916.16;;;3.44;100.00
21879;BME280;27908;42.708;23.278;2023-03-04T05:42:34;62934.31;;;3.47;100.00
21879;BME280;27908;42.708;23.278;2023-03-04T05:44:59;62946.06;;;3.55;100.00
21879;BME280;27908;42.708;23.278;2023-03-04T05:47:25;62949.31;;;3.71;100.00
21879;BME280;27908;42.708;23.278;2023-03-04T05:49:50;62950.44;;;3.79;100.00
21879;BME280;27908;42.708;23.278;2023-03-04T05:52:16;62957.00;;;3.81;100.00
21879;BME280;27908;42.708;23.278;2023-03-04T05:54:41;62966.28;;;3.94;100.00
21879;BME280;27908;42.708;23.278;2023-03-04T05:57:06;62979.66;;;4.12;100.00
21879;BME280;27908;42.708;23.278;2023-03-04T05:59:32;63026.34;;;4.33;100.00
21879;BME280;27908;42.708;23.278;2023-03-04T06:01:57;63015.31;;;4.37;100.00
21879;BME280;27908;42.708;23.278;2023-03-04T06:04:22;63059.47;;;4.55;100.00
21879;BME280;27908;42.708;23.278;2023-03-04T06:06:48;63073.81;;;4.71;100.00
21879;BME280;27908;42.708;23.278;2023-03-04T06:09:14;63153.31;;;4.87;100.00
21879;BME280;27908;42.708;23.278;2023-03-04T06:11:40;63086.28;;;4.95;100.00
21879;BME280;27908;42.708;23.278;2023-03-04T06:14:05;63097.03;;;5.06;100.00
21879;BME280;27908;42.708;23.278;2023-03-04T06:16:31;63121.38;;;5.15;100.00
21879;BME280;27908;42.708;23.278;2023-03-04T06:18:57;63083.66;;;5.25;100.00
21879;BME280;27908;42.708;23.278;2023-03-04T06:21:23;63109.78;;;5.50;100.00
21879;BME280;27908;42.708;23.278;2023-03-04T06:23:48;63180.28;;;5.69;100.00
21879;BME280;27908;42.708;23.278;2023-03-04T06:26:13;63204.09;;;5.72;100.00
21879;BME280;27908;42.708;23.278;2023-03-04T06:28:42;63204.88;;;5.90;100.00
21879;BME280;27908;42.708;23.278;2023-03-04T06:31:08;63225.78;;;6.03;100.00
21879;BME280;27908;42.708;23.278;2023-03-04T06:33:34;63256.94;;;6.26;100.00
21879;BME280;27908;42.708;23.278;2023-03-04T06:36:00;63219.03;;;6.28;100.00
21879;BME280;27908;42.708;23.278;2023-03-04T06:38:25;63257.72;;;6.46;100.00
21879;BME280;27908;42.708;23.278;2023-03-04T06:40:51;63284.59;;;6.50;100.00
21879;BME280;27908;42.708;23.278;2023-03-04T06:43:17;63265.56;;;6.63;100.00
21879;BME280;27908;42.708;23.278;2023-03-04T06:45:43;63255.69;;;6.46;100.00
21879;BME280;27908;42.708;23.278;2023-03-04T06:48:09;63272.84;;;6.41;100.00
21879;BME280;27908;42.708;23.278;2023-03-04T06:50:34;63271.88;;;6.45;100.00
21879;BME280;27908;42.708;23.278;2023-03-04T06:53:00;63254.56;;;6.38;100.00
21879;BME280;27908;42.708;23.278;2023-03-04T06:55:28;63286.00;;;6.41;100.00
21879;BME280;27908;42.708;23.278;2023-03-04T06:57:53;63272.31;;;6.40;100.00
21879;BME280;27908;42.708;23.278;2023-03-04T07:00:20;63320.53;;;6.50;100.00
21879;BME280;27908;42.708;23.278;2023-03-04T07:02:48;63284.28;;;6.64;100.00
21879;BME280;27908;42.708;23.278;2023-03-04T07:05:13;63258.53;;;6.32;100.00
21879;BME280;27908;42.708;23.278;2023-03-04T07:07:38;63293.66;;;6.46;100.00
21879;BME280;27908;42.708;23.278;2023-03-04T07:10:04;63269.00;;;6.20;100.00
21879;BME280;27908;42.708;23.278;2023-03-04T07:12:30;63240.88;;;6.35;100.00
21879;BME280;27908;42.708;23.278;2023-03-04T07:14:55;63218.84;;;6.13;100.00
21879;BME280;27908;42.708;23.278;2023-03-04T07:17:21;63261.41;;;6.20;100.00
21879;BME280;27908;42.708;23.278;2023-03-04T07:19:46;63293.72;;;6.49;100.00
21879;BME280;27908;42.708;23.278;2023-03-04T07:22:12;63286.81;;;6.64;100.00
21879;BME280;27908;42.708;23.278;2023-03-04T07:24:37;63317.06;;;6.54;100.00
21879;BME280;27908;42.708;23.278;2023-03-04T07:27:02;63282.47;;;6.79;100.00
21879;BME280;27908;42.708;23.278;2023-03-04T07:29:28;63296.31;;;6.54;100.00
21879;BME280;27908;42.708;23.278;2023-03-04T07:31:53;63306.28;;;6.80;100.00
21879;BME280;27908;42.708;23.278;2023-03-04T07:34:19;63346.31;;;6.82;100.00
21879;BME280;27908;42.708;23.278;2023-03-04T07:36:45;63334.66;;;6.81;100.00
21879;BME280;27908;42.708;23.278;2023-03-04T07:39:11;63332.09;;;6.78;100.00
21879;BME280;27908;42.708;23.278;2023-03-04T07:41:38;63298.75;;;6.85;100.00
21879;BME280;27908;42.708;23.278;2023-03-04T07:44:06;63314.03;;;6.54;100.00
21879;BME280;27908;42.708;23.278;2023-03-04T07:46:32;63278.28;;;6.68;100.00
21879;BME280;27908;42.708;23.278;2023-03-04T07:48:57;63327.03;;;6.78;100.00
21879;BME280;27908;42.708;23.278;2023-03-04T07:51:24;63311.91;;;6.83;100.00
21879;BME280;27908;42.708;23.278;2023-03-04T07:53:52;63317.81;;;7.08;100.00
21879;BME280;27908;42.708;23.278;2023-03-04T07:56:21;63362.47;;;7.15;100.00
21879;BME280;27908;42.708;23.278;2023-03-04T07:58:47;63358.09;;;6.91;100.00
21879;BME280;27908;42.708;23.278;2023-03-04T08:01:15;63307.47;;;6.94;100.00
21879;BME280;27908;42.708;23.278;2023-03-04T08:03:41;63328.66;;;6.87;100.00
21879;BME280;27908;42.708;23.278;2023-03-04T08:06:09;63306.38;;;6.88;100.00
21879;BME280;27908;42.708;23.278;2023-03-04T08:08:35;63333.81;;;6.95;100.00
21879;BME280;27908;42.708;23.278;2023-03-04T08:11:06;63384.03;;;6.99;100.00
21879;BME280;27908;42.708;23.278;2023-03-04T08:13:32;63391.41;;;7.18;100.00
21879;BME280;27908;42.708;23.278;2023-03-04T08:15:57;63362.63;;;7.27;100.00
21879;BME280;27908;42.708;23.278;2023-03-04T08:18:23;63307.56;;;7.01;100.00
21879;BME280;27908;42.708;23.278;2023-03-04T08:20:48;63342.25;;;6.81;100.00
21879;BME280;27908;42.708;23.278;2023-03-04T08:23:13;63353.91;;;6.82;100.00
21879;BME280;27908;42.708;23.278;2023-03-04T08:25:40;63296.06;;;6.73;100.00
21879;BME280;27908;42.708;23.278;2023-03-04T08:28:07;63301.25;;;6.83;100.00
21879;BME280;27908;42.708;23.278;2023-03-04T08:30:32;63320.53;;;6.87;100.00
21879;BME280;27908;42.708;23.278;2023-03-04T08:32:58;63361.22;;;6.99;100.00
21879;BME280;27908;42.708;23.278;2023-03-04T08:35:25;63396.59;;;6.92;100.00
21879;BME280;27908;42.708;23.278;2023-03-04T08:37:50;63343.59;;;7.04;100.00
21879;BME280;27908;42.708;23.278;2023-03-04T08:40:15;63377.19;;;7.17;100.00
21879;BME280;27908;42.708;23.278;2023-03-04T08:42:41;63376.22;;;7.21;100.00
21879;BME280;27908;42.708;23.278;2023-03-04T08:45:08;63404.22;;;7.28;100.00
21879;BME280;27908;42.708;23.278;2023-03-04T08:47:34;63405.50;;;7.49;100.00
21879;BME280;27908;42.708;23.278;2023-03-04T08:49:59;63423.94;;;7.62;100.00
21879;BME280;27908;42.708;23.278;2023-03-04T08:52:25;63456.25;;;7.88;100.00
21879;BME280;27908;42.708;23.278;2023-03-04T08:54:52;63487.88;;;8.01;100.00
21879;BME280;27908;42.708;23.278;2023-03-04T08:57:18;63487.91;;;8.04;99.04
21879;BME280;27908;42.708;23.278;2023-03-04T08:59:43;63494.66;;;8.15;97.31
21879;BME280;27908;42.708;23.278;2023-03-04T09:02:09;63499.75;;;8.15;97.64
21879;BME280;27908;42.708;23.278;2023-03-04T09:04:34;63491.94;;;8.03;100.00
21879;BME280;27908;42.708;23.278;2023-03-04T09:07:00;63464.56;;;8.03;100.00
21879;BME280;27908;42.708;23.278;2023-03-04T09:09:26;63472.31;;;8.13;100.00
21879;BME280;27908;42.708;23.278;2023-03-04T09:11:51;63452.31;;;7.60;100.00
21879;BME280;27908;42.708;23.278;2023-03-04T09:14:17;63418.31;;;7.59;100.00
21879;BME280;27908;42.708;23.278;2023-03-04T09:16:42;63411.13;;;7.52;100.00
21879;BME280;27908;42.708;23.278;2023-03-04T09:19:08;63441.09;;;7.93;100.00
21879;BME280;27908;42.708;23.278;2023-03-04T09:21:33;63469.25;;;8.13;100.00
21879;BME280;27908;42.708;23.278;2023-03-04T09:23:58;63517.13;;;8.24;100.00
21879;BME280;27908;42.708;23.278;2023-03-04T09:26:26;63490.25;;;8.67;100.00
21879;BME280;27908;42.708;23.278;2023-03-04T09:28:53;63584.56;;;8.91;96.71
21879;BME280;27908;42.708;23.278;2023-03-04T09:31:19;63507.56;;;8.30;98.21
21879;BME280;27908;42.708;23.278;2023-03-04T09:33:45;63505.47;;;8.25;100.00
21879;BME280;27908;42.708;23.278;2023-03-04T09:36:12;63527.63;;;8.49;97.71
21879;BME280;27908;42.708;23.278;2023-03-04T09:38:39;63549.81;;;8.78;98.78
21879;BME280;27908;42.708;23.278;2023-03-04T09:41:08;63613.31;;;9.14;97.86
21879;BME280;27908;42.708;23.278;2023-03-04T09:43:37;63679.34;;;9.46;97.27
21879;BME280;27908;42.708;23.278;2023-03-04T09:46:11;63639.38;;;9.63;93.87
21879;BME280;27908;42.708;23.278;2023-03-04T09:48:49;63613.00;;;9.28;92.06
21879;BME280;27908;42.708;23.278;2023-03-04T09:54:04;63594.31;;;8.98;96.54
21879;BME280;27908;42.708;23.278;2023-03-04T09:56:34;63620.78;;;9.02;94.90
21879;BME280;27908;42.708;23.278;2023-03-04T10:01:51;63650.91;;;9.50;94.92
21879;BME280;27908;42.708;23.278;2023-03-04T10:04:45;63698.56;;;9.76;92.33
21879;BME280;27908;42.708;23.278;2023-03-04T10:07:18;63726.25;;;9.91;87.90
21879;BME280;27908;42.708;23.278;2023-03-04T10:10:06;63699.47;;;10.06;89.50
21879;BME280;27908;42.708;23.278;2023-03-04T10:12:37;63746.03;;;10.24;90.38
21879;BME280;27908;42.708;23.278;2023-03-04T10:15:16;63723.34;;;10.02;88.56
21879;BME280;27908;42.708;23.278;2023-03-04T10:17:46;63671.88;;;9.99;89.64
21879;BME280;27908;42.708;23.278;2023-03-04T10:22:43;63720.72;;;9.97;88.56
21879;BME280;27908;42.708;23.278;2023-03-04T10:33:16;63761.91;;;10.32;85.98
21879;BME280;27908;42.708;23.278;2023-03-04T10:35:45;63763.91;;;9.90;86.42
21879;BME280;27908;42.708;23.278;2023-03-04T10:38:12;63698.78;;;9.55;90.23
21879;BME280;27908;42.708;23.278;2023-03-04T10:40:40;63655.53;;;9.55;90.70
21879;BME280;27908;42.708;23.278;2023-03-04T10:43:21;63710.38;;;9.85;91.38
21879;BME280;27908;42.708;23.278;2023-03-04T10:45:47;63699.81;;;9.92;91.03
21879;BME280;27908;42.708;23.278;2023-03-04T10:48:18;63749.75;;;9.96;90.18
21879;BME280;27908;42.708;23.278;2023-03-04T10:50:44;63695.38;;;9.66;89.16
21879;BME280;27908;42.708;23.278;2023-03-04T10:53:23;63682.78;;;9.76;90.58
21879;BME280;27908;42.708;23.278;2023-03-04T10:55:49;63714.47;;;9.87;91.85
21879;BME280;27908;42.708;23.278;2023-03-04T10:58:16;63770.69;;;10.01;92.07
21879;BME280;27908;42.708;23.278;2023-03-04T11:00:58;63753.63;;;10.22;90.54
21879;BME280;27908;42.708;23.278;2023-03-04T11:06:18;63783.81;;;10.31;86.98
21879;BME280;27908;42.708;23.278;2023-03-04T11:08:52;63742.84;;;10.14;88.39
21879;BME280;27908;42.708;23.278;2023-03-04T11:11:23;63721.28;;;10.00;87.00
21879;BME280;27908;42.708;23.278;2023-03-04T11:13:57;63730.16;;;10.16;90.32
21879;BME280;27908;42.708;23.278;2023-03-04T11:16:26;63723.94;;;10.08;87.09
21879;BME280;27908;42.708;23.278;2023-03-04T11:18:55;63781.22;;;10.26;87.90
21879;BME280;27908;42.708;23.278;2023-03-04T11:21:26;63733.66;;;10.12;86.81
21879;BME280;27908;42.708;23.278;2023-03-04T11:23:56;63742.41;;;10.18;88.06
21879;BME280;27908;42.708;23.278;2023-03-04T11:26:49;63703.22;;;9.83;89.06
21879;BME280;27908;42.708;23.278;2023-03-04T11:29:24;63698.50;;;9.71;89.74
21879;BME280;27908;42.708;23.278;2023-03-04T11:31:57;63654.31;;;9.78;90.67
21879;BME280;27908;42.708;23.278;2023-03-04T11:40:07;63723.84;;;10.00;89.35
21879;BME280;27908;42.708;23.278;2023-03-04T11:45:18;63723.19;;;9.90;90.84
21879;BME280;27908;42.708;23.278;2023-03-04T11:50:56;63743.38;;;10.17;89.44
21879;BME280;27908;42.708;23.278;2023-03-04T11:56:44;63794.88;;;10.59;86.83
21879;BME280;27908;42.708;23.278;2023-03-04T12:02:14;63669.47;;;10.12;85.65
21879;BME280;27908;42.708;23.278;2023-03-04T12:29:18;63979.19;;;11.93;77.65
21879;BME280;27908;42.708;23.278;2023-03-04T12:31:50;63976.47;;;11.78;77.88
21879;BME280;27908;42.708;23.278;2023-03-04T12:34:30;63954.88;;;11.68;77.83
21879;BME280;27908;42.708;23.278;2023-03-04T12:39:58;63950.13;;;11.56;79.83
21879;BME280;27908;42.708;23.278;2023-03-04T12:48:34;63961.41;;;11.59;77.62
21879;BME280;27908;42.708;23.278;2023-03-04T12:53:56;63775.22;;;10.37;82.58
21879;BME280;27908;42.708;23.278;2023-03-04T12:56:29;63831.78;;;10.38;85.21
21879;BME280;27908;42.708;23.278;2023-03-04T12:58:56;63777.28;;;10.00;84.69
21879;BME280;27908;42.708;23.278;2023-03-04T13:01:31;63766.78;;;10.15;85.42
21879;BME280;27908;42.708;23.278;2023-03-04T13:04:11;63726.69;;;10.25;85.13
21879;BME280;27908;42.708;23.278;2023-03-04T13:06:45;63776.66;;;10.29;84.24
21879;BME280;27908;42.708;23.278;2023-03-04T13:16:49;63816.00;;;10.79;81.92
21879;BME280;27908;42.708;23.278;2023-03-04T13:25:26;63760.88;;;10.29;83.96
21879;BME280;27908;42.708;23.278;2023-03-04T13:27:49;63794.19;;;10.46;83.73
21879;BME280;27908;42.708;23.278;2023-03-04T13:32:57;63854.28;;;10.81;87.67
21879;BME280;27908;42.708;23.278;2023-03-04T13:38:37;63862.13;;;10.99;82.08
21879;BME280;27908;42.708;23.278;2023-03-04T13:44:00;63914.09;;;10.95;83.66
21879;BME280;27908;42.708;23.278;2023-03-04T13:51:28;63875.97;;;11.04;79.95
21879;BME280;27908;42.708;23.278;2023-03-04T13:56:34;63909.84;;;11.20;81.13
21879;BME280;27908;42.708;23.278;2023-03-04T13:59:14;63901.78;;;11.27;82.77
21879;BME280;27908;42.708;23.278;2023-03-04T14:06:43;63876.53;;;11.07;83.11
21879;BME280;27908;42.708;23.278;2023-03-04T14:09:14;63804.97;;;10.51;85.65
21879;BME280;27908;42.708;23.278;2023-03-04T14:11:40;63801.28;;;10.43;87.33
21879;BME280;27908;42.708;23.278;2023-03-04T14:14:29;63786.97;;;10.39;89.26
21879;BME280;27908;42.708;23.278;2023-03-04T14:17:02;63801.66;;;10.33;90.17
21879;BME280;27908;42.708;23.278;2023-03-04T14:19:31;63803.38;;;10.47;90.15
21879;BME280;27908;42.708;23.278;2023-03-04T14:21:59;63929.31;;;10.53;89.47
21879;BME280;27908;42.708;23.278;2023-03-04T14:24:25;63790.63;;;10.45;89.97
21879;BME280;27908;42.708;23.278;2023-03-04T14:27:10;63836.59;;;10.55;88.50
21879;BME280;27908;42.708;23.278;2023-03-04T14:29:35;63814.19;;;10.55;88.14
21879;BME280;27908;42.708;23.278;2023-03-04T14:32:03;63822.38;;;10.58;88.58
21879;BME280;27908;42.708;23.278;2023-03-04T14:34:34;63778.13;;;10.26;87.50
21879;BME280;27908;42.708;23.278;2023-03-04T14:37:01;63760.53;;;10.04;89.18
21879;BME280;27908;42.708;23.278;2023-03-04T14:39:32;63766.69;;;10.07;88.82
21879;BME280;27908;42.708;23.278;2023-03-04T14:42:11;63701.47;;;10.03;89.04
21879;BME280;27908;42.708;23.278;2023-03-04T14:44:49;63689.94;;;10.19;89.49